sensor_id;sensor_type;location;lat;lon;timestamp;temperature;humidity
15690;DHT22;7945;48.816;11.506;2022-10-23T00:00:11;13.20;99.90
15690;DHT22;7945;48.816;11.506;2022-10-23T00:02:37;13.20;99.90
15690;DHT22;7945;48.816;11.506;2022-10-23T00:05:05;13.20;99.90
15690;DHT22;7945;48.816;11.506;2022-10-23T00:07:33;13.20;99.90
15690;DHT22;7945;48.816;11.506;2022-10-23T00:10:00;13.20;99.90
15690;DHT22;7945;48.816;11.506;2022-10-23T00:12:26;13.10;99.90
15690;DHT22;7945;48.816;11.506;2022-10-23T00:14:53;13.20;99.90
15690;DHT22;7945;48.816;11.506;2022-10-23T00:17:20;13.10;99.90
15690;DHT22;7945;48.816;11.506;2022-10-23T00:19:47;13.20;99.90
15690;DHT22;7945;48.816;11.506;2022-10-23T00:22:13;13.20;99.90
15690;DHT22;7945;48.816;11.506;2022-10-23T00:24:41;13.30;99.90
15690;DHT22;7945;48.816;11.506;2022-10-23T00:27:08;13.30;99.90
15690;DHT22;7945;48.816;11.506;2022-10-23T00:29:35;13.30;99.90
15690;DHT22;7945;48.816;11.506;2022-10-23T00:32:02;13.40;99.90
15690;DHT22;7945;48.816;11.506;2022-10-23T00:34:29;13.30;99.90
15690;DHT22;7945;48.816;11.506;2022-10-23T00:36:55;13.40;99.90
15690;DHT22;7945;48.816;11.506;2022-10-23T00:39:22;13.40;99.90
15690;DHT22;7945;48.816;11.506;2022-10-23T00:41:50;13.30;99.90
15690;DHT22;7945;48.816;11.506;2022-10-23T00:47:21;13.30;99.90
15690;DHT22;7945;48.816;11.506;2022-10-23T00:49:48;13.30;99.90
15690;DHT22;7945;48.816;11.506;2022-10-23T00:52:15;13.30;99.90
15690;DHT22;7945;48.816;11.506;2022-10-23T00:54:42;13.30;99.90
15690;DHT22;7945;48.816;11.506;2022-10-23T00:57:13;13.30;99.90
15690;DHT22;7945;48.816;11.506;2022-10-23T00:59:40;13.20;99.90
15690;DHT22;7945;48.816;11.506;2022-10-23T01:02:08;13.20;99.90
15690;DHT22;7945;48.816;11.506;2022-10-23T01:04:35;13.10;99.90
15690;DHT22;7945;48.816;11.506;2022-10-23T01:07:06;13.10;99.90
15690;DHT22;7945;48.816;11.506;2022-10-23T01:09:38;13.10;99.90
15690;DHT22;7945;48.816;11.506;2022-10-23T01:12:12;13.10;99.90
15690;DHT22;7945;48.816;11.506;2022-10-23T01:14:55;13.10;99.90
15690;DHT22;7945;48.816;11.506;2022-10-23T01:17:29;13.00;99.90
15690;DHT22;7945;48.816;11.506;2022-10-23T01:20:10;13.00;99.90
15690;DHT22;7945;48.816;11.506;2022-10-23T01:22:51;13.00;99.90
15690;DHT22;7945;48.816;11.506;2022-10-23T01:25:28;13.00;99.90
15690;DHT22;7945;48.816;11.506;2022-10-23T01:28:06;12.90;99.90
15690;DHT22;7945;48.816;11.506;2022-10-23T01:30:35;12.90;99.90
15690;DHT22;7945;48.816;11.506;2022-10-23T01:33:06;12.90;99.90
15690;DHT22;7945;48.816;11.506;2022-10-23T01:35:39;12.80;99.90
15690;DHT22;7945;48.816;11.506;2022-10-23T01:38:11;12.80;99.90
15690;DHT22;7945;48.816;11.506;2022-10-23T01:40:47;12.70;99.90
15690;DHT22;7945;48.816;11.506;2022-10-23T01:43:19;12.70;99.90
15690;DHT22;7945;48.816;11.506;2022-10-23T01:45:51;12.60;99.90
15690;DHT22;7945;48.816;11.506;2022-10-23T01:48:22;12.60;99.90
15690;DHT22;7945;48.816;11.506;2022-10-23T01:50:50;12.60;99.90
15690;DHT22;7945;48.816;11.506;2022-10-23T01:53:19;12.50;99.90
15690;DHT22;7945;48.816;11.506;2022-10-23T01:55:48;12.60;99.90
15690;DHT22;7945;48.816;11.506;2022-10-23T01:58:18;12.60;99.90
15690;DHT22;7945;48.816;11.506;2022-10-23T02:00:46;12.60;99.90
15690;DHT22;7945;48.816;11.506;2022-10-23T02:03:15;12.60;99.90
15690;DHT22;7945;48.816;11.506;2022-10-23T02:05:43;12.60;99.90
15690;DHT22;7945;48.816;11.506;2022-10-23T02:08:10;12.60;99.90
15690;DHT22;7945;48.816;11.506;2022-10-23T02:10:43;12.60;99.90
15690;DHT22;7945;48.816;11.506;2022-10-23T02:13:18;12.50;99.90
15690;DHT22;7945;48.816;11.506;2022-10-23T02:15:53;12.50;99.90
15690;DHT22;7945;48.816;11.506;2022-10-23T02:18:31;12.50;99.90
15690;DHT22;7945;48.816;11.506;2022-10-23T02:21:05;12.40;99.90
15690;DHT22;7945;48.816;11.506;2022-10-23T02:23:35;12.40;99.90
15690;DHT22;7945;48.816;11.506;2022-10-23T02:26:07;12.40;99.90
15690;DHT22;7945;48.816;11.506;2022-10-23T02:28:48;12.30;99.90
15690;DHT22;7945;48.816;11.506;2022-10-23T02:31:16;12.30;99.90
15690;DHT22;7945;48.816;11.506;2022-10-23T02:33:45;12.30;99.90
15690;DHT22;7945;48.816;11.506;2022-10-23T02:36:12;12.30;99.90
15690;DHT22;7945;48.816;11.506;2022-10-23T02:38:41;12.20;99.90
15690;DHT22;7945;48.816;11.506;2022-10-23T02:41:17;12.20;99.90
15690;DHT22;7945;48.816;11.506;2022-10-23T02:43:53;12.20;99.90
15690;DHT22;7945;48.816;11.506;2022-10-23T02:46:30;12.20;99.90
15690;DHT22;7945;48.816;11.506;2022-10-23T02:49:09;12.20;99.90
15690;DHT22;7945;48.816;11.506;2022-10-23T02:51:46;12.20;99.90
15690;DHT22;7945;48.816;11.506;2022-10-23T02:54:21;12.20;99.90
15690;DHT22;7945;48.816;11.506;2022-10-23T02:57:02;12.10;99.90
15690;DHT22;7945;48.816;11.506;2022-10-23T02:59:36;12.20;99.90
15690;DHT22;7945;48.816;11.506;2022-10-23T03:02:09;12.20;99.90
15690;DHT22;7945;48.816;11.506;2022-10-23T03:04:42;12.20;99.90
15690;DHT22;7945;48.816;11.506;2022-10-23T03:07:10;12.20;99.90
15690;DHT22;7945;48.816;11.506;2022-10-23T03:09:38;12.20;99.90
15690;DHT22;7945;48.816;11.506;2022-10-23T03:12:05;12.10;99.90
15690;DHT22;7945;48.816;11.506;2022-10-23T03:14:33;12.10;99.90
15690;DHT22;7945;48.816;11.506;2022-10-23T03:17:00;12.10;99.90
15690;DHT22;7945;48.816;11.506;2022-10-23T03:19:26;12.10;99.90
15690;DHT22;7945;48.816;11.506;2022-10-23T03:21:53;12.10;99.90
15690;DHT22;7945;48.816;11.506;2022-10-23T03:24:20;12.20;99.90
15690;DHT22;7945;48.816;11.506;2022-10-23T03:26:46;12.20;99.90
15690;DHT22;7945;48.816;11.506;2022-10-23T03:29:13;12.20;99.90
15690;DHT22;7945;48.816;11.506;2022-10-23T03:31:41;12.20;99.90
15690;DHT22;7945;48.816;11.506;2022-10-23T03:34:08;12.30;99.90
15690;DHT22;7945;48.816;11.506;2022-10-23T03:36:36;12.30;99.90
15690;DHT22;7945;48.816;11.506;2022-10-23T03:39:03;12.30;99.90
15690;DHT22;7945;48.816;11.506;2022-10-23T03:41:30;12.30;99.90
15690;DHT22;7945;48.816;11.506;2022-10-23T03:43:57;12.30;99.90
15690;DHT22;7945;48.816;11.506;2022-10-23T03:46:24;12.20;99.90
15690;DHT22;7945;48.816;11.506;2022-10-23T03:48:52;12.20;99.90
15690;DHT22;7945;48.816;11.506;2022-10-23T03:51:19;12.20;99.90
15690;DHT22;7945;48.816;11.506;2022-10-23T03:53:46;12.10;99.90
15690;DHT22;7945;48.816;11.506;2022-10-23T03:56:13;12.10;99.90
15690;DHT22;7945;48.816;11.506;2022-10-23T03:58:40;12.10;99.90
15690;DHT22;7945;48.816;11.506;2022-10-23T04:01:07;12.10;99.90
15690;DHT22;7945;48.816;11.506;2022-10-23T04:03:33;12.10;99.90
15690;DHT22;7945;48.816;11.506;2022-10-23T04:06:01;12.10;99.90
15690;DHT22;7945;48.816;11.506;2022-10-23T04:08:28;12.10;99.90
15690;DHT22;7945;48.816;11.506;2022-10-23T04:10:55;12.00;99.90
15690;DHT22;7945;48.816;11.506;2022-10-23T04:13:22;11.90;99.90
15690;DHT22;7945;48.816;11.506;2022-10-23T04:15:49;11.90;99.90
15690;DHT22;7945;48.816;11.506;2022-10-23T04:18:16;11.90;99.90
15690;DHT22;7945;48.816;11.506;2022-10-23T04:20:45;11.80;99.90
15690;DHT22;7945;48.816;11.506;2022-10-23T04:23:13;11.90;99.90
15690;DHT22;7945;48.816;11.506;2022-10-23T04:25:41;11.80;99.90
15690;DHT22;7945;48.816;11.506;2022-10-23T04:28:07;11.80;99.90
15690;DHT22;7945;48.816;11.506;2022-10-23T04:30:34;11.80;99.90
15690;DHT22;7945;48.816;11.506;2022-10-23T04:33:01;11.80;99.90
15690;DHT22;7945;48.816;11.506;2022-10-23T04:35:28;11.70;99.90
15690;DHT22;7945;48.816;11.506;2022-10-23T04:37:54;11.70;99.90
15690;DHT22;7945;48.816;11.506;2022-10-23T04:40:22;11.70;99.90
15690;DHT22;7945;48.816;11.506;2022-10-23T04:42:49;11.70;99.90
15690;DHT22;7945;48.816;11.506;2022-10-23T04:45:16;11.70;99.90
15690;DHT22;7945;48.816;11.506;2022-10-23T04:47:43;11.70;99.90
15690;DHT22;7945;48.816;11.506;2022-10-23T04:50:09;11.70;99.90
15690;DHT22;7945;48.816;11.506;2022-10-23T04:52:36;11.60;99.90
15690;DHT22;7945;48.816;11.506;2022-10-23T04:55:05;11.60;99.90
15690;DHT22;7945;48.816;11.506;2022-10-23T04:57:33;11.60;99.90
15690;DHT22;7945;48.816;11.506;2022-10-23T05:00:00;11.50;99.90
15690;DHT22;7945;48.816;11.506;2022-10-23T05:02:27;11.50;99.90
15690;DHT22;7945;48.816;11.506;2022-10-23T05:04:54;11.40;99.90
15690;DHT22;7945;48.816;11.506;2022-10-23T05:07:20;11.40;99.90
15690;DHT22;7945;48.816;11.506;2022-10-23T05:09:47;11.40;99.90
15690;DHT22;7945;48.816;11.506;2022-10-23T05:12:14;11.30;99.90
15690;DHT22;7945;48.816;11.506;2022-10-23T05:14:42;11.30;99.90
15690;DHT22;7945;48.816;11.506;2022-10-23T05:17:13;11.30;99.90
15690;DHT22;7945;48.816;11.506;2022-10-23T05:19:44;11.30;99.90
15690;DHT22;7945;48.816;11.506;2022-10-23T05:22:12;11.30;99.90
15690;DHT22;7945;48.816;11.506;2022-10-23T05:24:39;11.30;99.90
15690;DHT22;7945;48.816;11.506;2022-10-23T05:27:06;11.30;99.90
15690;DHT22;7945;48.816;11.506;2022-10-23T05:29:33;11.30;99.90
15690;DHT22;7945;48.816;11.506;2022-10-23T05:32:02;11.30;99.90
15690;DHT22;7945;48.816;11.506;2022-10-23T05:34:31;11.30;99.90
15690;DHT22;7945;48.816;11.506;2022-10-23T05:36:59;11.30;99.90
15690;DHT22;7945;48.816;11.506;2022-10-23T05:39:26;11.30;99.90
15690;DHT22;7945;48.816;11.506;2022-10-23T05:41:53;11.30;99.90
15690;DHT22;7945;48.816;11.506;2022-10-23T05:44:20;11.30;99.90
15690;DHT22;7945;48.816;11.506;2022-10-23T05:46:47;11.20;99.90
15690;DHT22;7945;48.816;11.506;2022-10-23T05:49:15;11.20;99.90
15690;DHT22;7945;48.816;11.506;2022-10-23T05:51:42;11.20;99.90
15690;DHT22;7945;48.816;11.506;2022-10-23T05:54:09;11.20;99.90
15690;DHT22;7945;48.816;11.506;2022-10-23T05:56:37;11.20;99.90
15690;DHT22;7945;48.816;11.506;2022-10-23T05:59:06;11.20;99.90
15690;DHT22;7945;48.816;11.506;2022-10-23T06:01:33;11.20;99.90
15690;DHT22;7945;48.816;11.506;2022-10-23T06:04:00;11.30;99.90
15690;DHT22;7945;48.816;11.506;2022-10-23T06:06:29;11.30;99.90
15690;DHT22;7945;48.816;11.506;2022-10-23T06:08:55;11.30;99.90
15690;DHT22;7945;48.816;11.506;2022-10-23T06:14:48;11.30;99.90
15690;DHT22;7945;48.816;11.506;2022-10-23T06:17:15;11.30;99.90
15690;DHT22;7945;48.816;11.506;2022-10-23T06:19:42;11.30;99.90
15690;DHT22;7945;48.816;11.506;2022-10-23T06:22:09;11.30;99.90
15690;DHT22;7945;48.816;11.506;2022-10-23T06:24:36;12.10;99.90
15690;DHT22;7945;48.816;11.506;2022-10-23T06:27:03;11.40;99.90
15690;DHT22;7945;48.816;11.506;2022-10-23T06:29:30;11.50;99.90
15690;DHT22;7945;48.816;11.506;2022-10-23T06:31:58;11.50;99.90
15690;DHT22;7945;48.816;11.506;2022-10-23T06:34:24;11.60;99.90
15690;DHT22;7945;48.816;11.506;2022-10-23T06:36:51;11.60;99.90
15690;DHT22;7945;48.816;11.506;2022-10-23T06:39:18;11.50;99.90
15690;DHT22;7945;48.816;11.506;2022-10-23T06:41:46;11.50;99.90
15690;DHT22;7945;48.816;11.506;2022-10-23T06:44:13;11.50;99.90
15690;DHT22;7945;48.816;11.506;2022-10-23T06:46:40;11.40;99.90
15690;DHT22;7945;48.816;11.506;2022-10-23T06:49:08;11.50;99.90
15690;DHT22;7945;48.816;11.506;2022-10-23T06:51:35;11.60;99.90
15690;DHT22;7945;48.816;11.506;2022-10-23T06:54:01;11.70;99.90
15690;DHT22;7945;48.816;11.506;2022-10-23T06:56:28;11.70;99.90
15690;DHT22;7945;48.816;11.506;2022-10-23T06:58:55;11.80;99.90
15690;DHT22;7945;48.816;11.506;2022-10-23T07:01:22;11.80;99.90
15690;DHT22;7945;48.816;11.506;2022-10-23T07:03:49;11.80;99.90
15690;DHT22;7945;48.816;11.506;2022-10-23T07:06:17;11.90;99.90
15690;DHT22;7945;48.816;11.506;2022-10-23T07:08:44;11.90;99.90
15690;DHT22;7945;48.816;11.506;2022-10-23T07:11:11;12.00;99.90
15690;DHT22;7945;48.816;11.506;2022-10-23T07:13:38;12.00;99.90
15690;DHT22;7945;48.816;11.506;2022-10-23T07:16:11;12.00;99.90
15690;DHT22;7945;48.816;11.506;2022-10-23T07:18:38;12.00;99.90
15690;DHT22;7945;48.816;11.506;2022-10-23T07:21:05;12.00;99.90
15690;DHT22;7945;48.816;11.506;2022-10-23T07:23:33;12.00;99.90
15690;DHT22;7945;48.816;11.506;2022-10-23T07:26:07;12.10;99.90
15690;DHT22;7945;48.816;11.506;2022-10-23T07:28:35;12.00;99.90
15690;DHT22;7945;48.816;11.506;2022-10-23T07:31:02;12.10;99.90
15690;DHT22;7945;48.816;11.506;2022-10-23T07:33:29;12.20;99.90
15690;DHT22;7945;48.816;11.506;2022-10-23T07:35:56;12.30;99.90
15690;DHT22;7945;48.816;11.506;2022-10-23T07:38:22;12.30;99.90
15690;DHT22;7945;48.816;11.506;2022-10-23T07:40:51;12.40;99.90
15690;DHT22;7945;48.816;11.506;2022-10-23T07:43:18;12.40;99.90
15690;DHT22;7945;48.816;11.506;2022-10-23T07:45:46;12.50;99.90
15690;DHT22;7945;48.816;11.506;2022-10-23T07:48:13;12.50;99.90
15690;DHT22;7945;48.816;11.506;2022-10-23T07:50:40;12.50;99.90
15690;DHT22;7945;48.816;11.506;2022-10-23T07:53:11;12.50;99.90
15690;DHT22;7945;48.816;11.506;2022-10-23T07:55:40;12.50;99.90
15690;DHT22;7945;48.816;11.506;2022-10-23T07:58:08;12.50;99.90
15690;DHT22;7945;48.816;11.506;2022-10-23T08:00:37;12.50;99.90
15690;DHT22;7945;48.816;11.506;2022-10-23T08:03:04;12.60;99.90
15690;DHT22;7945;48.816;11.506;2022-10-23T08:05:30;12.70;99.90
15690;DHT22;7945;48.816;11.506;2022-10-23T08:07:57;12.80;99.90
15690;DHT22;7945;48.816;11.506;2022-10-23T08:10:24;12.80;99.90
15690;DHT22;7945;48.816;11.506;2022-10-23T08:12:51;12.90;99.90
15690;DHT22;7945;48.816;11.506;2022-10-23T08:15:19;13.00;99.90
15690;DHT22;7945;48.816;11.506;2022-10-23T08:17:45;13.10;99.90
15690;DHT22;7945;48.816;11.506;2022-10-23T08:20:12;13.20;99.90
15690;DHT22;7945;48.816;11.506;2022-10-23T08:22:39;13.50;99.90
15690;DHT22;7945;48.816;11.506;2022-10-23T08:25:07;13.20;99.90
15690;DHT22;7945;48.816;11.506;2022-10-23T08:27:33;13.20;99.90
15690;DHT22;7945;48.816;11.506;2022-10-23T08:30:00;13.20;99.90
15690;DHT22;7945;48.816;11.506;2022-10-23T08:32:29;13.20;99.90
15690;DHT22;7945;48.816;11.506;2022-10-23T08:34:56;13.20;99.90
15690;DHT22;7945;48.816;11.506;2022-10-23T08:37:23;13.20;99.90
15690;DHT22;7945;48.816;11.506;2022-10-23T08:39:49;13.20;99.90
15690;DHT22;7945;48.816;11.506;2022-10-23T08:42:19;13.10;99.90
15690;DHT22;7945;48.816;11.506;2022-10-23T08:44:52;13.10;99.90
15690;DHT22;7945;48.816;11.506;2022-10-23T08:47:25;13.10;99.90
15690;DHT22;7945;48.816;11.506;2022-10-23T08:49:58;13.10;99.90
15690;DHT22;7945;48.816;11.506;2022-10-23T08:52:31;13.10;99.90
15690;DHT22;7945;48.816;11.506;2022-10-23T08:55:04;13.10;99.90
15690;DHT22;7945;48.816;11.506;2022-10-23T08:57:34;13.10;99.90
15690;DHT22;7945;48.816;11.506;2022-10-23T09:00:05;13.10;99.90
15690;DHT22;7945;48.816;11.506;2022-10-23T09:02:37;13.20;99.90
15690;DHT22;7945;48.816;11.506;2022-10-23T09:05:12;13.40;99.90
15690;DHT22;7945;48.816;11.506;2022-10-23T09:07:49;13.50;99.90
15690;DHT22;7945;48.816;11.506;2022-10-23T09:10:33;13.50;99.90
15690;DHT22;7945;48.816;11.506;2022-10-23T09:13:12;13.60;99.90
15690;DHT22;7945;48.816;11.506;2022-10-23T09:15:45;13.60;99.90
15690;DHT22;7945;48.816;11.506;2022-10-23T09:18:15;13.60;99.90
15690;DHT22;7945;48.816;11.506;2022-10-23T09:20:44;13.70;99.90
15690;DHT22;7945;48.816;11.506;2022-10-23T09:23:14;13.70;99.90
15690;DHT22;7945;48.816;11.506;2022-10-23T09:25:43;13.80;99.90
15690;DHT22;7945;48.816;11.506;2022-10-23T09:28:17;13.90;99.90
15690;DHT22;7945;48.816;11.506;2022-10-23T09:30:45;13.90;99.90
15690;DHT22;7945;48.816;11.506;2022-10-23T09:33:15;13.90;99.90
15690;DHT22;7945;48.816;11.506;2022-10-23T09:35:55;13.90;99.90
15690;DHT22;7945;48.816;11.506;2022-10-23T09:38:28;14.00;99.90
15690;DHT22;7945;48.816;11.506;2022-10-23T09:40:56;14.10;99.90
15690;DHT22;7945;48.816;11.506;2022-10-23T09:43:24;14.10;99.90
15690;DHT22;7945;48.816;11.506;2022-10-23T09:45:57;14.20;99.90
15690;DHT22;7945;48.816;11.506;2022-10-23T09:48:24;14.20;99.90
15690;DHT22;7945;48.816;11.506;2022-10-23T09:50:54;14.40;99.90
15690;DHT22;7945;48.816;11.506;2022-10-23T09:53:27;14.50;99.90
15690;DHT22;7945;48.816;11.506;2022-10-23T09:55:58;14.60;99.90
15690;DHT22;7945;48.816;11.506;2022-10-23T09:58:30;14.70;99.90
15690;DHT22;7945;48.816;11.506;2022-10-23T10:00:58;14.80;99.90
15690;DHT22;7945;48.816;11.506;2022-10-23T10:03:25;14.90;99.90
15690;DHT22;7945;48.816;11.506;2022-10-23T10:05:58;14.90;99.90
15690;DHT22;7945;48.816;11.506;2022-10-23T10:08:31;14.90;99.90
15690;DHT22;7945;48.816;11.506;2022-10-23T10:11:04;14.90;99.90
15690;DHT22;7945;48.816;11.506;2022-10-23T10:13:45;15.00;99.90
15690;DHT22;7945;48.816;11.506;2022-10-23T10:16:24;14.90;99.90
15690;DHT22;7945;48.816;11.506;2022-10-23T10:18:58;15.00;99.90
15690;DHT22;7945;48.816;11.506;2022-10-23T10:21:33;15.30;99.90
15690;DHT22;7945;48.816;11.506;2022-10-23T10:24:07;15.40;99.90
15690;DHT22;7945;48.816;11.506;2022-10-23T10:26:39;15.50;99.90
15690;DHT22;7945;48.816;11.506;2022-10-23T10:29:16;15.60;99.90
15690;DHT22;7945;48.816;11.506;2022-10-23T10:31:57;15.50;99.90
15690;DHT22;7945;48.816;11.506;2022-10-23T10:34:28;15.50;99.90
15690;DHT22;7945;48.816;11.506;2022-10-23T10:37:05;15.30;99.90
15690;DHT22;7945;48.816;11.506;2022-10-23T10:39:42;15.20;99.90
15690;DHT22;7945;48.816;11.506;2022-10-23T10:42:30;15.20;99.90
15690;DHT22;7945;48.816;11.506;2022-10-23T10:45:11;15.30;99.90
15690;DHT22;7945;48.816;11.506;2022-10-23T10:47:53;15.40;99.90
15690;DHT22;7945;48.816;11.506;2022-10-23T10:50:26;15.50;99.90
15690;DHT22;7945;48.816;11.506;2022-10-23T10:53:02;15.60;99.90
15690;DHT22;7945;48.816;11.506;2022-10-23T10:55:37;15.70;99.90
15690;DHT22;7945;48.816;11.506;2022-10-23T10:58:11;15.80;99.90
15690;DHT22;7945;48.816;11.506;2022-10-23T11:00:39;16.00;99.90
15690;DHT22;7945;48.816;11.506;2022-10-23T11:03:15;16.10;99.90
15690;DHT22;7945;48.816;11.506;2022-10-23T11:05:47;16.20;99.90
15690;DHT22;7945;48.816;11.506;2022-10-23T11:08:18;16.20;99.90
15690;DHT22;7945;48.816;11.506;2022-10-23T11:10:50;17.40;99.90
15690;DHT22;7945;48.816;11.506;2022-10-23T11:13:24;16.40;99.90
15690;DHT22;7945;48.816;11.506;2022-10-23T11:15:54;16.40;99.90
15690;DHT22;7945;48.816;11.506;2022-10-23T11:18:25;16.50;99.90
15690;DHT22;7945;48.816;11.506;2022-10-23T11:20:59;16.40;99.90
15690;DHT22;7945;48.816;11.506;2022-10-23T11:24:10;16.40;99.90
15690;DHT22;7945;48.816;11.506;2022-10-23T11:26:50;16.50;99.90
15690;DHT22;7945;48.816;11.506;2022-10-23T11:32:25;16.50;99.90
15690;DHT22;7945;48.816;11.506;2022-10-23T11:35:18;16.60;99.90
15690;DHT22;7945;48.816;11.506;2022-10-23T11:37:57;16.80;99.90
15690;DHT22;7945;48.816;11.506;2022-10-23T11:40:26;16.80;99.90
15690;DHT22;7945;48.816;11.506;2022-10-23T11:42:54;16.90;99.90
15690;DHT22;7945;48.816;11.506;2022-10-23T11:45:26;16.80;99.90
15690;DHT22;7945;48.816;11.506;2022-10-23T11:47:56;16.80;99.90
15690;DHT22;7945;48.816;11.506;2022-10-23T11:50:27;16.80;99.90
15690;DHT22;7945;48.816;11.506;2022-10-23T11:53:03;16.80;99.90
15690;DHT22;7945;48.816;11.506;2022-10-23T11:55:36;16.80;99.90
15690;DHT22;7945;48.816;11.506;2022-10-23T11:58:21;16.80;99.90
15690;DHT22;7945;48.816;11.506;2022-10-23T12:00:56;16.80;99.90
15690;DHT22;7945;48.816;11.506;2022-10-23T12:03:27;16.80;99.90
15690;DHT22;7945;48.816;11.506;2022-10-23T12:06:01;16.80;99.90
15690;DHT22;7945;48.816;11.506;2022-10-23T12:08:30;16.80;99.90
15690;DHT22;7945;48.816;11.506;2022-10-23T12:10:59;16.70;99.90
15690;DHT22;7945;48.816;11.506;2022-10-23T12:13:30;16.70;99.90
15690;DHT22;7945;48.816;11.506;2022-10-23T12:15:57;16.70;99.90
15690;DHT22;7945;48.816;11.506;2022-10-23T12:18:23;16.70;99.90
15690;DHT22;7945;48.816;11.506;2022-10-23T12:20:53;16.70;99.90
15690;DHT22;7945;48.816;11.506;2022-10-23T12:23:42;16.70;99.90
15690;DHT22;7945;48.816;11.506;2022-10-23T12:26:43;16.60;99.90
15690;DHT22;7945;48.816;11.506;2022-10-23T12:29:20;16.60;99.90
15690;DHT22;7945;48.816;11.506;2022-10-23T12:31:55;16.70;99.90
15690;DHT22;7945;48.816;11.506;2022-10-23T12:34:33;16.70;99.90
15690;DHT22;7945;48.816;11.506;2022-10-23T12:39:55;16.70;99.90
15690;DHT22;7945;48.816;11.506;2022-10-23T12:42:26;16.70;99.90
15690;DHT22;7945;48.816;11.506;2022-10-23T12:44:59;16.70;99.90
15690;DHT22;7945;48.816;11.506;2022-10-23T12:47:28;16.70;99.90
15690;DHT22;7945;48.816;11.506;2022-10-23T12:49:55;16.80;99.90
15690;DHT22;7945;48.816;11.506;2022-10-23T12:52:22;16.80;99.90
15690;DHT22;7945;48.816;11.506;2022-10-23T12:54:50;16.80;99.90
15690;DHT22;7945;48.816;11.506;2022-10-23T12:57:20;16.80;99.90
15690;DHT22;7945;48.816;11.506;2022-10-23T12:59:49;16.80;99.90
15690;DHT22;7945;48.816;11.506;2022-10-23T13:02:22;16.80;99.90
15690;DHT22;7945;48.816;11.506;2022-10-23T13:04:50;16.80;99.90
15690;DHT22;7945;48.816;11.506;2022-10-23T13:07:20;16.80;99.90
15690;DHT22;7945;48.816;11.506;2022-10-23T13:09:48;16.70;99.90
15690;DHT22;7945;48.816;11.506;2022-10-23T13:12:19;16.70;99.90
15690;DHT22;7945;48.816;11.506;2022-10-23T13:14:58;16.70;99.90
15690;DHT22;7945;48.816;11.506;2022-10-23T13:17:36;16.80;99.90
15690;DHT22;7945;48.816;11.506;2022-10-23T13:20:22;16.80;99.90
15690;DHT22;7945;48.816;11.506;2022-10-23T13:22:58;16.80;99.90
15690;DHT22;7945;48.816;11.506;2022-10-23T13:25:27;16.80;99.90
15690;DHT22;7945;48.816;11.506;2022-10-23T13:28:11;16.90;99.90
15690;DHT22;7945;48.816;11.506;2022-10-23T13:30:42;16.80;99.90
15690;DHT22;7945;48.816;11.506;2022-10-23T13:33:20;16.80;99.90
15690;DHT22;7945;48.816;11.506;2022-10-23T13:35:55;16.80;99.90
15690;DHT22;7945;48.816;11.506;2022-10-23T13:38:31;16.90;99.90
15690;DHT22;7945;48.816;11.506;2022-10-23T13:40:59;17.00;99.90
15690;DHT22;7945;48.816;11.506;2022-10-23T13:43:27;16.90;99.90
15690;DHT22;7945;48.816;11.506;2022-10-23T13:45:56;16.90;99.90
15690;DHT22;7945;48.816;11.506;2022-10-23T13:48:24;16.90;99.90
15690;DHT22;7945;48.816;11.506;2022-10-23T13:50:51;16.90;99.90
15690;DHT22;7945;48.816;11.506;2022-10-23T13:53:18;16.90;99.90
15690;DHT22;7945;48.816;11.506;2022-10-23T13:55:47;16.90;99.90
15690;DHT22;7945;48.816;11.506;2022-10-23T13:58:16;16.90;99.90
15690;DHT22;7945;48.816;11.506;2022-10-23T14:00:45;16.90;99.90
15690;DHT22;7945;48.816;11.506;2022-10-23T14:03:14;16.90;99.90
15690;DHT22;7945;48.816;11.506;2022-10-23T14:05:41;16.90;99.90
15690;DHT22;7945;48.816;11.506;2022-10-23T14:08:08;16.90;99.90
15690;DHT22;7945;48.816;11.506;2022-10-23T14:10:35;16.90;99.90
15690;DHT22;7945;48.816;11.506;2022-10-23T14:16:25;16.90;99.90
15690;DHT22;7945;48.816;11.506;2022-10-23T14:18:53;17.00;99.90
15690;DHT22;7945;48.816;11.506;2022-10-23T14:21:21;17.00;99.90
15690;DHT22;7945;48.816;11.506;2022-10-23T14:23:49;17.10;99.90
15690;DHT22;7945;48.816;11.506;2022-10-23T14:26:18;17.10;99.90
15690;DHT22;7945;48.816;11.506;2022-10-23T14:28:46;17.10;99.90
15690;DHT22;7945;48.816;11.506;2022-10-23T14:31:15;17.20;99.90
15690;DHT22;7945;48.816;11.506;2022-10-23T14:33:43;17.20;99.90
15690;DHT22;7945;48.816;11.506;2022-10-23T14:36:11;17.30;99.90
15690;DHT22;7945;48.816;11.506;2022-10-23T14:38:38;17.30;99.90
15690;DHT22;7945;48.816;11.506;2022-10-23T14:41:09;17.30;99.90
15690;DHT22;7945;48.816;11.506;2022-10-23T14:43:36;17.30;99.90
15690;DHT22;7945;48.816;11.506;2022-10-23T14:46:11;17.30;99.90
15690;DHT22;7945;48.816;11.506;2022-10-23T14:48:38;17.30;99.90
15690;DHT22;7945;48.816;11.506;2022-10-23T14:51:12;17.30;99.90
15690;DHT22;7945;48.816;11.506;2022-10-23T14:53:41;17.20;99.90
15690;DHT22;7945;48.816;11.506;2022-10-23T14:56:08;17.10;99.90
15690;DHT22;7945;48.816;11.506;2022-10-23T14:58:36;17.10;99.90
15690;DHT22;7945;48.816;11.506;2022-10-23T15:01:03;17.10;99.90
15690;DHT22;7945;48.816;11.506;2022-10-23T15:03:31;17.10;99.90
15690;DHT22;7945;48.816;11.506;2022-10-23T15:05:57;17.10;99.90
15690;DHT22;7945;48.816;11.506;2022-10-23T15:08:25;17.00;99.90
15690;DHT22;7945;48.816;11.506;2022-10-23T15:10:53;17.00;99.90
15690;DHT22;7945;48.816;11.506;2022-10-23T15:13:20;17.00;99.90
15690;DHT22;7945;48.816;11.506;2022-10-23T15:15:46;16.90;99.90
15690;DHT22;7945;48.816;11.506;2022-10-23T15:18:13;17.00;99.90
15690;DHT22;7945;48.816;11.506;2022-10-23T15:20:40;16.90;99.90
15690;DHT22;7945;48.816;11.506;2022-10-23T15:23:07;16.80;99.90
15690;DHT22;7945;48.816;11.506;2022-10-23T15:25:34;16.80;99.90
15690;DHT22;7945;48.816;11.506;2022-10-23T15:28:02;16.80;99.90
15690;DHT22;7945;48.816;11.506;2022-10-23T15:30:29;16.70;99.90
15690;DHT22;7945;48.816;11.506;2022-10-23T15:32:56;16.70;99.90
15690;DHT22;7945;48.816;11.506;2022-10-23T15:35:23;16.70;99.90
15690;DHT22;7945;48.816;11.506;2022-10-23T15:37:50;16.60;99.90
15690;DHT22;7945;48.816;11.506;2022-10-23T15:40:17;16.60;99.90
15690;DHT22;7945;48.816;11.506;2022-10-23T15:42:43;16.60;99.90
15690;DHT22;7945;48.816;11.506;2022-10-23T15:45:13;16.50;99.90
15690;DHT22;7945;48.816;11.506;2022-10-23T15:47:40;16.50;99.90
15690;DHT22;7945;48.816;11.506;2022-10-23T15:50:08;16.40;99.90
15690;DHT22;7945;48.816;11.506;2022-10-23T15:52:35;16.40;99.90
15690;DHT22;7945;48.816;11.506;2022-10-23T15:55:02;16.40;99.90
15690;DHT22;7945;48.816;11.506;2022-10-23T15:57:31;16.30;99.90
15690;DHT22;7945;48.816;11.506;2022-10-23T15:59:58;16.30;99.90
15690;DHT22;7945;48.816;11.506;2022-10-23T16:02:27;16.30;99.90